sensor_id;sensor_type;location;lat;lon;timestamp;P1;durP1;ratioP1;P2;durP2;ratioP2
23282;SDS011;11810;51.178;3.878;2023-04-03T00:02:07;20.83;;;13.27;;
23282;SDS011;11810;51.178;3.878;2023-04-03T00:04:33;20.02;;;12.70;;
23282;SDS011;11810;51.178;3.878;2023-04-03T00:06:59;19.58;;;13.40;;
23282;SDS011;11810;51.178;3.878;2023-04-03T00:09:25;16.40;;;12.02;;
23282;SDS011;11810;51.178;3.878;2023-04-03T00:11:51;21.10;;;13.13;;
23282;SDS011;11810;51.178;3.878;2023-04-03T00:14:17;20.17;;;14.50;;
23282;SDS011;11810;51.178;3.878;2023-04-03T00:16:43;21.23;;;12.80;;
23282;SDS011;11810;51.178;3.878;2023-04-03T00:19:09;19.55;;;13.82;;
23282;SDS011;11810;51.178;3.878;2023-04-03T00:23:09;20.63;;;12.88;;
23282;SDS011;11810;51.178;3.878;2023-04-03T00:25:36;20.15;;;13.75;;
23282;SDS011;11810;51.178;3.878;2023-04-03T00:28:02;19.08;;;13.98;;
23282;SDS011;11810;51.178;3.878;2023-04-03T00:30:28;21.67;;;13.50;;
23282;SDS011;11810;51.178;3.878;2023-04-03T00:32:55;19.67;;;13.80;;
23282;SDS011;11810;51.178;3.878;2023-04-03T00:35:22;22.88;;;13.82;;
23282;SDS011;11810;51.178;3.878;2023-04-03T00:37:50;19.73;;;13.25;;
23282;SDS011;11810;51.178;3.878;2023-04-03T00:40:17;20.48;;;12.93;;
23282;SDS011;11810;51.178;3.878;2023-04-03T00:42:44;23.33;;;14.35;;
23282;SDS011;11810;51.178;3.878;2023-04-03T00:46:12;18.60;;;14.00;;
23282;SDS011;11810;51.178;3.878;2023-04-03T00:48:41;23.50;;;13.68;;
23282;SDS011;11810;51.178;3.878;2023-04-03T00:51:11;21.23;;;13.68;;
23282;SDS011;11810;51.178;3.878;2023-04-03T00:53:41;22.85;;;14.38;;
23282;SDS011;11810;51.178;3.878;2023-04-03T00:56:12;20.05;;;13.82;;
23282;SDS011;11810;51.178;3.878;2023-04-03T00:58:42;21.02;;;14.82;;
23282;SDS011;11810;51.178;3.878;2023-04-03T01:01:16;20.95;;;14.05;;
23282;SDS011;11810;51.178;3.878;2023-04-03T01:04:34;19.33;;;14.25;;
23282;SDS011;11810;51.178;3.878;2023-04-03T01:09:31;25.98;;;14.68;;
23282;SDS011;11810;51.178;3.878;2023-04-03T01:12:18;24.27;;;14.82;;
23282;SDS011;11810;51.178;3.878;2023-04-03T01:17:27;21.77;;;13.93;;
23282;SDS011;11810;51.178;3.878;2023-04-03T01:25:25;20.58;;;13.68;;
23282;SDS011;11810;51.178;3.878;2023-04-03T01:27:52;18.92;;;13.55;;
23282;SDS011;11810;51.178;3.878;2023-04-03T01:30:18;20.80;;;14.18;;
23282;SDS011;11810;51.178;3.878;2023-04-03T01:32:46;20.10;;;14.20;;
23282;SDS011;11810;51.178;3.878;2023-04-03T01:35:12;22.60;;;14.27;;
23282;SDS011;11810;51.178;3.878;2023-04-03T01:38:18;22.38;;;15.18;;
23282;SDS011;11810;51.178;3.878;2023-04-03T01:40:44;17.13;;;13.70;;
23282;SDS011;11810;51.178;3.878;2023-04-03T01:43:10;19.35;;;13.40;;
23282;SDS011;11810;51.178;3.878;2023-04-03T01:45:36;21.02;;;13.75;;
23282;SDS011;11810;51.178;3.878;2023-04-03T01:48:01;19.42;;;14.07;;
23282;SDS011;11810;51.178;3.878;2023-04-03T01:51:19;22.38;;;13.60;;
23282;SDS011;11810;51.178;3.878;2023-04-03T01:53:45;20.38;;;13.70;;
23282;SDS011;11810;51.178;3.878;2023-04-03T01:56:11;22.75;;;14.25;;
23282;SDS011;11810;51.178;3.878;2023-04-03T01:58:37;20.85;;;14.20;;
23282;SDS011;11810;51.178;3.878;2023-04-03T02:01:03;16.27;;;12.90;;
23282;SDS011;11810;51.178;3.878;2023-04-03T02:03:29;17.48;;;12.50;;
23282;SDS011;11810;51.178;3.878;2023-04-03T02:05:56;18.42;;;12.63;;
23282;SDS011;11810;51.178;3.878;2023-04-03T02:08:22;19.98;;;12.98;;
23282;SDS011;11810;51.178;3.878;2023-04-03T02:10:48;20.25;;;13.43;;
23282;SDS011;11810;51.178;3.878;2023-04-03T02:13:15;18.83;;;12.65;;
23282;SDS011;11810;51.178;3.878;2023-04-03T02:15:41;22.13;;;14.52;;
23282;SDS011;11810;51.178;3.878;2023-04-03T02:18:07;21.10;;;14.40;;
23282;SDS011;11810;51.178;3.878;2023-04-03T02:20:33;22.27;;;14.77;;
23282;SDS011;11810;51.178;3.878;2023-04-03T02:22:59;20.10;;;14.80;;
23282;SDS011;11810;51.178;3.878;2023-04-03T02:25:25;22.40;;;14.63;;
23282;SDS011;11810;51.178;3.878;2023-04-03T02:27:51;25.95;;;15.55;;
23282;SDS011;11810;51.178;3.878;2023-04-03T02:30:17;25.45;;;18.33;;
23282;SDS011;11810;51.178;3.878;2023-04-03T02:32:43;28.77;;;20.52;;
23282;SDS011;11810;51.178;3.878;2023-04-03T02:35:10;26.80;;;17.08;;
23282;SDS011;11810;51.178;3.878;2023-04-03T02:37:37;25.40;;;17.95;;
23282;SDS011;11810;51.178;3.878;2023-04-03T02:40:03;28.38;;;16.45;;
23282;SDS011;11810;51.178;3.878;2023-04-03T02:42:31;25.95;;;17.65;;
23282;SDS011;11810;51.178;3.878;2023-04-03T02:44:57;25.35;;;16.02;;
23282;SDS011;11810;51.178;3.878;2023-04-03T02:47:23;21.23;;;16.33;;
23282;SDS011;11810;51.178;3.878;2023-04-03T02:49:48;22.60;;;15.95;;
23282;SDS011;11810;51.178;3.878;2023-04-03T02:52:14;28.73;;;15.90;;
23282;SDS011;11810;51.178;3.878;2023-04-03T02:55:27;26.38;;;16.58;;
23282;SDS011;11810;51.178;3.878;2023-04-03T02:57:53;24.77;;;15.45;;
23282;SDS011;11810;51.178;3.878;2023-04-03T03:00:19;24.23;;;15.23;;
23282;SDS011;11810;51.178;3.878;2023-04-03T03:02:45;22.35;;;14.63;;
23282;SDS011;11810;51.178;3.878;2023-04-03T03:05:11;20.67;;;14.80;;
23282;SDS011;11810;51.178;3.878;2023-04-03T03:09:29;23.42;;;15.02;;
23282;SDS011;11810;51.178;3.878;2023-04-03T03:11:56;24.27;;;15.55;;
23282;SDS011;11810;51.178;3.878;2023-04-03T03:14:22;23.15;;;15.55;;
23282;SDS011;11810;51.178;3.878;2023-04-03T03:16:48;26.20;;;16.30;;
23282;SDS011;11810;51.178;3.878;2023-04-03T03:19:14;25.63;;;15.63;;
23282;SDS011;11810;51.178;3.878;2023-04-03T03:21:40;24.33;;;16.30;;
23282;SDS011;11810;51.178;3.878;2023-04-03T03:24:06;21.23;;;14.77;;
23282;SDS011;11810;51.178;3.878;2023-04-03T03:26:32;23.58;;;15.52;;
23282;SDS011;11810;51.178;3.878;2023-04-03T03:28:59;23.02;;;14.52;;
23282;SDS011;11810;51.178;3.878;2023-04-03T03:31:24;20.77;;;15.25;;
23282;SDS011;11810;51.178;3.878;2023-04-03T03:33:50;22.90;;;15.48;;
23282;SDS011;11810;51.178;3.878;2023-04-03T03:36:16;23.52;;;14.90;;
23282;SDS011;11810;51.178;3.878;2023-04-03T03:38:42;25.92;;;16.70;;
23282;SDS011;11810;51.178;3.878;2023-04-03T03:41:08;22.52;;;15.02;;
23282;SDS011;11810;51.178;3.878;2023-04-03T03:43:34;23.35;;;16.13;;
23282;SDS011;11810;51.178;3.878;2023-04-03T03:46:00;25.77;;;15.27;;
23282;SDS011;11810;51.178;3.878;2023-04-03T03:48:26;20.55;;;15.68;;
23282;SDS011;11810;51.178;3.878;2023-04-03T03:50:52;25.92;;;16.40;;
23282;SDS011;11810;51.178;3.878;2023-04-03T03:53:18;22.48;;;15.77;;
23282;SDS011;11810;51.178;3.878;2023-04-03T03:55:44;24.42;;;15.68;;
23282;SDS011;11810;51.178;3.878;2023-04-03T03:58:10;24.92;;;15.63;;
23282;SDS011;11810;51.178;3.878;2023-04-03T04:00:36;26.33;;;15.38;;
23282;SDS011;11810;51.178;3.878;2023-04-03T04:07:35;25.60;;;14.77;;
23282;SDS011;11810;51.178;3.878;2023-04-03T04:10:02;25.08;;;15.57;;
23282;SDS011;11810;51.178;3.878;2023-04-03T04:12:28;24.98;;;15.40;;
23282;SDS011;11810;51.178;3.878;2023-04-03T04:15:37;23.35;;;16.42;;
23282;SDS011;11810;51.178;3.878;2023-04-03T04:18:03;26.25;;;15.98;;
23282;SDS011;11810;51.178;3.878;2023-04-03T04:20:29;26.77;;;17.10;;
23282;SDS011;11810;51.178;3.878;2023-04-03T04:22:55;25.70;;;15.73;;
23282;SDS011;11810;51.178;3.878;2023-04-03T04:25:21;27.83;;;16.30;;
23282;SDS011;11810;51.178;3.878;2023-04-03T04:29:38;25.85;;;16.05;;
23282;SDS011;11810;51.178;3.878;2023-04-03T04:32:04;25.35;;;16.20;;
23282;SDS011;11810;51.178;3.878;2023-04-03T04:34:30;25.30;;;16.02;;
23282;SDS011;11810;51.178;3.878;2023-04-03T04:36:56;27.23;;;16.50;;
23282;SDS011;11810;51.178;3.878;2023-04-03T04:39:22;26.40;;;17.08;;
23282;SDS011;11810;51.178;3.878;2023-04-03T04:41:48;27.83;;;17.35;;
23282;SDS011;11810;51.178;3.878;2023-04-03T04:44:14;27.20;;;17.77;;
23282;SDS011;11810;51.178;3.878;2023-04-03T04:46:40;29.83;;;18.75;;
23282;SDS011;11810;51.178;3.878;2023-04-03T04:49:06;24.77;;;18.00;;
23282;SDS011;11810;51.178;3.878;2023-04-03T04:51:32;31.70;;;18.08;;
23282;SDS011;11810;51.178;3.878;2023-04-03T04:53:58;32.47;;;18.70;;
23282;SDS011;11810;51.178;3.878;2023-04-03T04:56:24;32.58;;;17.40;;
23282;SDS011;11810;51.178;3.878;2023-04-03T04:58:50;26.23;;;18.15;;
23282;SDS011;11810;51.178;3.878;2023-04-03T05:02:42;31.73;;;19.00;;
23282;SDS011;11810;51.178;3.878;2023-04-03T05:05:08;29.75;;;18.40;;
23282;SDS011;11810;51.178;3.878;2023-04-03T05:07:34;26.75;;;18.30;;
23282;SDS011;11810;51.178;3.878;2023-04-03T05:10:01;27.50;;;19.15;;
23282;SDS011;11810;51.178;3.878;2023-04-03T05:12:28;27.67;;;19.15;;
23282;SDS011;11810;51.178;3.878;2023-04-03T05:14:54;27.73;;;17.88;;
23282;SDS011;11810;51.178;3.878;2023-04-03T05:17:20;32.35;;;17.88;;
23282;SDS011;11810;51.178;3.878;2023-04-03T05:19:46;30.42;;;19.23;;
23282;SDS011;11810;51.178;3.878;2023-04-03T05:22:12;25.60;;;17.83;;
23282;SDS011;11810;51.178;3.878;2023-04-03T05:24:38;37.63;;;19.75;;
23282;SDS011;11810;51.178;3.878;2023-04-03T05:27:04;29.52;;;19.08;;
23282;SDS011;11810;51.178;3.878;2023-04-03T05:29:30;28.33;;;19.25;;
23282;SDS011;11810;51.178;3.878;2023-04-03T05:31:56;30.58;;;20.15;;
23282;SDS011;11810;51.178;3.878;2023-04-03T05:34:22;30.35;;;19.42;;
23282;SDS011;11810;51.178;3.878;2023-04-03T05:36:48;29.10;;;18.58;;
23282;SDS011;11810;51.178;3.878;2023-04-03T05:39:14;35.05;;;21.98;;
23282;SDS011;11810;51.178;3.878;2023-04-03T05:42:46;37.03;;;20.50;;
23282;SDS011;11810;51.178;3.878;2023-04-03T05:45:12;40.72;;;23.48;;
23282;SDS011;11810;51.178;3.878;2023-04-03T05:47:38;32.42;;;20.83;;
23282;SDS011;11810;51.178;3.878;2023-04-03T05:50:04;34.75;;;21.73;;
23282;SDS011;11810;51.178;3.878;2023-04-03T05:52:38;36.63;;;21.55;;
23282;SDS011;11810;51.178;3.878;2023-04-03T05:55:08;32.83;;;21.52;;
23282;SDS011;11810;51.178;3.878;2023-04-03T05:58:48;36.30;;;22.67;;
23282;SDS011;11810;51.178;3.878;2023-04-03T06:01:14;39.75;;;24.17;;
23282;SDS011;11810;51.178;3.878;2023-04-03T06:03:41;40.53;;;24.15;;
23282;SDS011;11810;51.178;3.878;2023-04-03T06:06:07;34.78;;;22.08;;
23282;SDS011;11810;51.178;3.878;2023-04-03T06:08:33;38.55;;;23.73;;
23282;SDS011;11810;51.178;3.878;2023-04-03T06:11:00;35.03;;;22.20;;
23282;SDS011;11810;51.178;3.878;2023-04-03T06:13:27;31.77;;;21.58;;
23282;SDS011;11810;51.178;3.878;2023-04-03T06:15:53;35.72;;;21.70;;
23282;SDS011;11810;51.178;3.878;2023-04-03T06:18:19;39.65;;;22.17;;
23282;SDS011;11810;51.178;3.878;2023-04-03T06:20:45;32.60;;;22.05;;
23282;SDS011;11810;51.178;3.878;2023-04-03T06:23:11;31.02;;;20.52;;
23282;SDS011;11810;51.178;3.878;2023-04-03T06:25:37;33.17;;;22.05;;
23282;SDS011;11810;51.178;3.878;2023-04-03T06:28:03;32.97;;;21.48;;
23282;SDS011;11810;51.178;3.878;2023-04-03T06:30:29;32.40;;;21.00;;
23282;SDS011;11810;51.178;3.878;2023-04-03T06:32:55;32.40;;;20.58;;
23282;SDS011;11810;51.178;3.878;2023-04-03T06:35:21;29.63;;;18.33;;
23282;SDS011;11810;51.178;3.878;2023-04-03T06:37:48;27.27;;;17.70;;
23282;SDS011;11810;51.178;3.878;2023-04-03T06:40:16;29.85;;;17.08;;
23282;SDS011;11810;51.178;3.878;2023-04-03T06:42:50;20.25;;;15.20;;
23282;SDS011;11810;51.178;3.878;2023-04-03T06:45:16;22.25;;;14.05;;
23282;SDS011;11810;51.178;3.878;2023-04-03T06:48:53;17.60;;;13.35;;
23282;SDS011;11810;51.178;3.878;2023-04-03T06:51:23;23.10;;;13.43;;
23282;SDS011;11810;51.178;3.878;2023-04-03T06:53:52;18.98;;;13.35;;
23282;SDS011;11810;51.178;3.878;2023-04-03T06:56:19;19.23;;;12.00;;
23282;SDS011;11810;51.178;3.878;2023-04-03T06:58:45;16.10;;;11.45;;
23282;SDS011;11810;51.178;3.878;2023-04-03T07:01:13;15.20;;;10.63;;
23282;SDS011;11810;51.178;3.878;2023-04-03T07:03:40;13.90;;;10.52;;
23282;SDS011;11810;51.178;3.878;2023-04-03T07:06:06;13.90;;;10.10;;
23282;SDS011;11810;51.178;3.878;2023-04-03T07:08:34;14.82;;;10.57;;
23282;SDS011;11810;51.178;3.878;2023-04-03T07:11:00;13.43;;;9.93;;
23282;SDS011;11810;51.178;3.878;2023-04-03T07:13:26;15.88;;;9.80;;
23282;SDS011;11810;51.178;3.878;2023-04-03T07:15:52;14.23;;;10.13;;
23282;SDS011;11810;51.178;3.878;2023-04-03T07:18:18;12.85;;;9.57;;
23282;SDS011;11810;51.178;3.878;2023-04-03T07:20:44;14.95;;;10.10;;
23282;SDS011;11810;51.178;3.878;2023-04-03T07:23:11;11.65;;;9.38;;
23282;SDS011;11810;51.178;3.878;2023-04-03T07:25:40;14.05;;;9.10;;
23282;SDS011;11810;51.178;3.878;2023-04-03T07:28:11;14.05;;;9.20;;
23282;SDS011;11810;51.178;3.878;2023-04-03T07:30:44;11.88;;;9.32;;
23282;SDS011;11810;51.178;3.878;2023-04-03T07:33:11;14.52;;;8.60;;
23282;SDS011;11810;51.178;3.878;2023-04-03T07:35:38;14.57;;;8.38;;
23282;SDS011;11810;51.178;3.878;2023-04-03T07:38:05;14.60;;;8.77;;
23282;SDS011;11810;51.178;3.878;2023-04-03T07:40:31;14.38;;;8.77;;
23282;SDS011;11810;51.178;3.878;2023-04-03T07:42:58;12.18;;;8.35;;
23282;SDS011;11810;51.178;3.878;2023-04-03T07:45:24;12.57;;;8.23;;
23282;SDS011;11810;51.178;3.878;2023-04-03T07:47:50;10.32;;;7.05;;
23282;SDS011;11810;51.178;3.878;2023-04-03T07:50:16;14.38;;;7.45;;
23282;SDS011;11810;51.178;3.878;2023-04-03T07:52:43;10.75;;;7.38;;
23282;SDS011;11810;51.178;3.878;2023-04-03T07:55:09;9.23;;;6.65;;
23282;SDS011;11810;51.178;3.878;2023-04-03T07:57:35;11.65;;;6.88;;
23282;SDS011;11810;51.178;3.878;2023-04-03T08:00:03;10.90;;;6.43;;
23282;SDS011;11810;51.178;3.878;2023-04-03T08:02:30;10.60;;;5.53;;
23282;SDS011;11810;51.178;3.878;2023-04-03T08:04:59;8.40;;;6.05;;
23282;SDS011;11810;51.178;3.878;2023-04-03T08:07:25;9.38;;;5.95;;
23282;SDS011;11810;51.178;3.878;2023-04-03T08:09:51;12.93;;;5.63;;
23282;SDS011;11810;51.178;3.878;2023-04-03T08:12:17;10.18;;;5.90;;
23282;SDS011;11810;51.178;3.878;2023-04-03T08:14:43;9.25;;;5.63;;
23282;SDS011;11810;51.178;3.878;2023-04-03T08:17:09;10.48;;;5.00;;
23282;SDS011;11810;51.178;3.878;2023-04-03T08:19:39;9.13;;;5.40;;
23282;SDS011;11810;51.178;3.878;2023-04-03T08:22:06;9.38;;;5.05;;
23282;SDS011;11810;51.178;3.878;2023-04-03T08:24:32;7.25;;;5.25;;
23282;SDS011;11810;51.178;3.878;2023-04-03T08:26:59;11.10;;;5.03;;
23282;SDS011;11810;51.178;3.878;2023-04-03T08:29:25;9.50;;;4.47;;
23282;SDS011;11810;51.178;3.878;2023-04-03T08:31:51;10.00;;;5.07;;
23282;SDS011;11810;51.178;3.878;2023-04-03T08:34:17;7.65;;;4.68;;
23282;SDS011;11810;51.178;3.878;2023-04-03T08:36:44;10.68;;;4.57;;
23282;SDS011;11810;51.178;3.878;2023-04-03T08:39:10;7.47;;;4.45;;
23282;SDS011;11810;51.178;3.878;2023-04-03T08:41:38;7.40;;;3.85;;
23282;SDS011;11810;51.178;3.878;2023-04-03T08:49:48;5.68;;;3.95;;
23282;SDS011;11810;51.178;3.878;2023-04-03T08:54:57;12.18;;;3.97;;
23282;SDS011;11810;51.178;3.878;2023-04-03T08:57:33;13.70;;;4.28;;
23282;SDS011;11810;51.178;3.878;2023-04-03T09:00:09;8.02;;;3.72;;
23282;SDS011;11810;51.178;3.878;2023-04-03T09:02:49;11.68;;;4.53;;
23282;SDS011;11810;51.178;3.878;2023-04-03T09:05:23;11.65;;;4.43;;
23282;SDS011;11810;51.178;3.878;2023-04-03T09:10:41;9.10;;;3.40;;
23282;SDS011;11810;51.178;3.878;2023-04-03T09:13:21;7.53;;;2.75;;
23282;SDS011;11810;51.178;3.878;2023-04-03T09:15:50;9.65;;;3.22;;
23282;SDS011;11810;51.178;3.878;2023-04-03T09:18:23;7.30;;;3.95;;
23282;SDS011;11810;51.178;3.878;2023-04-03T09:21:17;6.32;;;2.60;;
23282;SDS011;11810;51.178;3.878;2023-04-03T09:23:51;6.18;;;2.58;;
23282;SDS011;11810;51.178;3.878;2023-04-03T09:26:20;6.72;;;2.20;;
23282;SDS011;11810;51.178;3.878;2023-04-03T09:28:51;6.05;;;2.50;;
23282;SDS011;11810;51.178;3.878;2023-04-03T09:31:20;5.85;;;2.17;;
23282;SDS011;11810;51.178;3.878;2023-04-03T09:33:52;5.43;;;2.72;;
23282;SDS011;11810;51.178;3.878;2023-04-03T09:36:38;9.30;;;2.63;;
23282;SDS011;11810;51.178;3.878;2023-04-03T09:39:10;5.70;;;2.50;;
23282;SDS011;11810;51.178;3.878;2023-04-03T09:42:03;5.78;;;2.38;;
23282;SDS011;11810;51.178;3.878;2023-04-03T09:44:34;7.30;;;2.27;;
23282;SDS011;11810;51.178;3.878;2023-04-03T09:47:18;6.57;;;2.63;;
23282;SDS011;11810;51.178;3.878;2023-04-03T09:50:08;6.68;;;3.00;;
23282;SDS011;11810;51.178;3.878;2023-04-03T09:52:37;5.95;;;2.47;;
23282;SDS011;11810;51.178;3.878;2023-04-03T09:55:07;4.50;;;2.10;;
23282;SDS011;11810;51.178;3.878;2023-04-03T09:57:39;6.22;;;2.22;;
23282;SDS011;11810;51.178;3.878;2023-04-03T10:00:06;5.55;;;2.53;;
23282;SDS011;11810;51.178;3.878;2023-04-03T10:02:53;5.72;;;2.58;;
23282;SDS011;11810;51.178;3.878;2023-04-03T10:08:20;3.92;;;2.40;;
23282;SDS011;11810;51.178;3.878;2023-04-03T10:11:09;7.13;;;2.88;;
23282;SDS011;11810;51.178;3.878;2023-04-03T10:13:35;5.95;;;2.65;;
23282;SDS011;11810;51.178;3.878;2023-04-03T10:16:03;4.47;;;2.28;;
23282;SDS011;11810;51.178;3.878;2023-04-03T10:18:52;4.78;;;2.22;;
23282;SDS011;11810;51.178;3.878;2023-04-03T10:27:17;4.88;;;2.05;;
23282;SDS011;11810;51.178;3.878;2023-04-03T10:30:33;6.57;;;3.10;;
23282;SDS011;11810;51.178;3.878;2023-04-03T10:35:17;4.38;;;2.10;;
23282;SDS011;11810;51.178;3.878;2023-04-03T10:38:00;5.68;;;2.08;;
23282;SDS011;11810;51.178;3.878;2023-04-03T10:40:52;4.43;;;1.80;;
23282;SDS011;11810;51.178;3.878;2023-04-03T10:43:49;4.35;;;2.00;;
23282;SDS011;11810;51.178;3.878;2023-04-03T10:46:51;6.90;;;2.53;;
23282;SDS011;11810;51.178;3.878;2023-04-03T10:52:05;5.18;;;2.15;;
23282;SDS011;11810;51.178;3.878;2023-04-03T10:54:38;6.00;;;2.17;;
23282;SDS011;11810;51.178;3.878;2023-04-03T10:57:10;4.28;;;1.83;;
23282;SDS011;11810;51.178;3.878;2023-04-03T10:59:47;3.42;;;1.75;;
23282;SDS011;11810;51.178;3.878;2023-04-03T11:04:59;3.30;;;2.05;;
23282;SDS011;11810;51.178;3.878;2023-04-03T11:07:37;5.85;;;2.33;;
23282;SDS011;11810;51.178;3.878;2023-04-03T11:10:17;3.92;;;2.05;;
23282;SDS011;11810;51.178;3.878;2023-04-03T11:12:56;4.25;;;1.90;;
23282;SDS011;11810;51.178;3.878;2023-04-03T11:15:30;4.13;;;1.50;;
23282;SDS011;11810;51.178;3.878;2023-04-03T11:18:00;4.35;;;1.73;;
23282;SDS011;11810;51.178;3.878;2023-04-03T11:20:31;7.00;;;1.75;;
23282;SDS011;11810;51.178;3.878;2023-04-03T11:23:03;6.43;;;1.60;;
23282;SDS011;11810;51.178;3.878;2023-04-03T11:25:42;5.47;;;1.65;;
23282;SDS011;11810;51.178;3.878;2023-04-03T11:28:12;6.95;;;2.30;;
23282;SDS011;11810;51.178;3.878;2023-04-03T11:30:49;4.78;;;1.83;;
23282;SDS011;11810;51.178;3.878;2023-04-03T11:36:12;4.90;;;1.85;;
23282;SDS011;11810;51.178;3.878;2023-04-03T11:38:47;2.22;;;1.40;;
23282;SDS011;11810;51.178;3.878;2023-04-03T11:41:16;4.28;;;1.40;;
23282;SDS011;11810;51.178;3.878;2023-04-03T11:43:57;3.05;;;1.45;;
23282;SDS011;11810;51.178;3.878;2023-04-03T12:13:42;4.38;;;1.60;;
23282;SDS011;11810;51.178;3.878;2023-04-03T12:18:57;4.85;;;1.60;;
23282;SDS011;11810;51.178;3.878;2023-04-03T12:35:06;4.85;;;1.48;;
23282;SDS011;11810;51.178;3.878;2023-04-03T12:40:31;3.60;;;1.20;;
23282;SDS011;11810;51.178;3.878;2023-04-03T12:43:10;2.78;;;1.30;;
23282;SDS011;11810;51.178;3.878;2023-04-03T12:51:15;4.85;;;2.22;;
23282;SDS011;11810;51.178;3.878;2023-04-03T12:53:58;4.10;;;1.60;;
23282;SDS011;11810;51.178;3.878;2023-04-03T12:56:46;2.78;;;1.42;;
23282;SDS011;11810;51.178;3.878;2023-04-03T12:59:15;3.20;;;1.23;;
23282;SDS011;11810;51.178;3.878;2023-04-03T13:01:43;4.35;;;1.30;;
23282;SDS011;11810;51.178;3.878;2023-04-03T13:04:18;3.72;;;1.10;;
23282;SDS011;11810;51.178;3.878;2023-04-03T13:06:44;3.60;;;1.45;;
23282;SDS011;11810;51.178;3.878;2023-04-03T13:09:20;2.65;;;1.20;;
23282;SDS011;11810;51.178;3.878;2023-04-03T13:11:56;2.35;;;1.23;;
23282;SDS011;11810;51.178;3.878;2023-04-03T13:14:34;2.97;;;1.10;;
23282;SDS011;11810;51.178;3.878;2023-04-03T13:17:04;4.47;;;1.20;;
23282;SDS011;11810;51.178;3.878;2023-04-03T13:19:40;3.75;;;1.30;;
23282;SDS011;11810;51.178;3.878;2023-04-03T13:22:08;5.97;;;1.58;;
23282;SDS011;11810;51.178;3.878;2023-04-03T13:24:44;4.35;;;1.45;;
23282;SDS011;11810;51.178;3.878;2023-04-03T13:27:13;3.25;;;1.10;;
23282;SDS011;11810;51.178;3.878;2023-04-03T13:29:39;2.25;;;1.40;;
23282;SDS011;11810;51.178;3.878;2023-04-03T13:32:05;4.30;;;1.20;;
23282;SDS011;11810;51.178;3.878;2023-04-03T13:34:37;6.82;;;1.10;;
23282;SDS011;11810;51.178;3.878;2023-04-03T13:39:44;4.22;;;1.40;;
23282;SDS011;11810;51.178;3.878;2023-04-03T13:44:48;2.38;;;1.10;;
23282;SDS011;11810;51.178;3.878;2023-04-03T13:47:18;2.20;;;1.20;;
23282;SDS011;11810;51.178;3.878;2023-04-03T13:52:28;2.20;;;1.40;;
23282;SDS011;11810;51.178;3.878;2023-04-03T13:58:01;2.63;;;1.40;;
23282;SDS011;11810;51.178;3.878;2023-04-03T14:03:03;5.38;;;1.42;;
23282;SDS011;11810;51.178;3.878;2023-04-03T14:05:48;3.60;;;1.50;;
23282;SDS011;11810;51.178;3.878;2023-04-03T14:08:15;2.85;;;1.40;;
23282;SDS011;11810;51.178;3.878;2023-04-03T14:10:41;3.78;;;1.58;;
23282;SDS011;11810;51.178;3.878;2023-04-03T14:13:17;2.67;;;1.30;;
23282;SDS011;11810;51.178;3.878;2023-04-03T14:15:46;3.85;;;1.48;;
23282;SDS011;11810;51.178;3.878;2023-04-03T14:18:14;3.80;;;1.55;;
23282;SDS011;11810;51.178;3.878;2023-04-03T14:20:42;3.72;;;1.65;;
23282;SDS011;11810;51.178;3.878;2023-04-03T14:23:08;4.47;;;1.80;;
23282;SDS011;11810;51.178;3.878;2023-04-03T14:25:35;5.00;;;1.48;;
23282;SDS011;11810;51.178;3.878;2023-04-03T14:28:23;2.45;;;1.40;;
23282;SDS011;11810;51.178;3.878;2023-04-03T14:30:49;2.33;;;1.33;;
23282;SDS011;11810;51.178;3.878;2023-04-03T14:33:17;2.42;;;1.23;;
23282;SDS011;11810;51.178;3.878;2023-04-03T14:35:45;2.95;;;1.40;;
23282;SDS011;11810;51.178;3.878;2023-04-03T14:38:16;2.70;;;1.10;;
23282;SDS011;11810;51.178;3.878;2023-04-03T14:40:54;3.65;;;1.38;;
23282;SDS011;11810;51.178;3.878;2023-04-03T14:43:21;2.17;;;1.52;;
23282;SDS011;11810;51.178;3.878;2023-04-03T14:45:48;3.10;;;1.85;;
23282;SDS011;11810;51.178;3.878;2023-04-03T14:48:19;3.15;;;1.35;;
23282;SDS011;11810;51.178;3.878;2023-04-03T14:50:51;3.80;;;1.33;;
23282;SDS011;11810;51.178;3.878;2023-04-03T14:53:18;4.95;;;1.90;;
23282;SDS011;11810;51.178;3.878;2023-04-03T14:55:47;2.83;;;1.60;;
23282;SDS011;11810;51.178;3.878;2023-04-03T14:58:15;2.05;;;1.35;;
23282;SDS011;11810;51.178;3.878;2023-04-03T15:00:42;3.05;;;1.30;;
23282;SDS011;11810;51.178;3.878;2023-04-03T15:03:15;5.30;;;2.20;;
23282;SDS011;11810;51.178;3.878;2023-04-03T15:05:46;2.13;;;1.20;;
23282;SDS011;11810;51.178;3.878;2023-04-03T15:08:23;3.80;;;1.40;;
23282;SDS011;11810;51.178;3.878;2023-04-03T15:10:51;1.50;;;1.23;;
23282;SDS011;11810;51.178;3.878;2023-04-03T15:13:18;3.75;;;1.45;;
23282;SDS011;11810;51.178;3.878;2023-04-03T15:15:45;1.73;;;1.13;;
23282;SDS011;11810;51.178;3.878;2023-04-03T15:18:19;2.88;;;1.20;;
23282;SDS011;11810;51.178;3.878;2023-04-03T15:20:47;3.40;;;1.30;;
23282;SDS011;11810;51.178;3.878;2023-04-03T15:23:14;3.88;;;1.70;;
23282;SDS011;11810;51.178;3.878;2023-04-03T15:25:42;2.53;;;1.35;;
23282;SDS011;11810;51.178;3.878;2023-04-03T15:28:22;2.35;;;1.27;;
23282;SDS011;11810;51.178;3.878;2023-04-03T15:31:07;5.75;;;1.30;;
23282;SDS011;11810;51.178;3.878;2023-04-03T15:33:34;1.90;;;1.13;;
23282;SDS011;11810;51.178;3.878;2023-04-03T15:36:01;3.03;;;1.20;;
23282;SDS011;11810;51.178;3.878;2023-04-03T15:38:27;3.33;;;1.35;;
23282;SDS011;11810;51.178;3.878;2023-04-03T15:40:53;3.35;;;1.20;;
23282;SDS011;11810;51.178;3.878;2023-04-03T15:43:20;2.03;;;1.13;;
23282;SDS011;11810;51.178;3.878;2023-04-03T15:45:47;2.28;;;1.15;;
23282;SDS011;11810;51.178;3.878;2023-04-03T15:48:16;5.90;;;1.42;;
23282;SDS011;11810;51.178;3.878;2023-04-03T15:50:42;4.50;;;1.48;;
23282;SDS011;11810;51.178;3.878;2023-04-03T15:53:08;4.50;;;1.48;;
23282;SDS011;11810;51.178;3.878;2023-04-03T15:55:36;2.13;;;1.20;;
23282;SDS011;11810;51.178;3.878;2023-04-03T15:58:02;5.28;;;1.48;;
23282;SDS011;11810;51.178;3.878;2023-04-03T16:00:29;3.67;;;1.23;;
23282;SDS011;11810;51.178;3.878;2023-04-03T16:02:58;3.78;;;1.20;;
23282;SDS011;11810;51.178;3.878;2023-04-03T16:05:29;4.35;;;1.60;;
23282;SDS011;11810;51.178;3.878;2023-04-03T16:07:56;2.83;;;1.30;;
23282;SDS011;11810;51.178;3.878;2023-04-03T16:10:24;2.40;;;1.48;;
23282;SDS011;11810;51.178;3.878;2023-04-03T16:12:51;2.88;;;1.40;;
23282;SDS011;11810;51.178;3.878;2023-04-03T16:15:17;3.10;;;1.40;;
23282;SDS011;11810;51.178;3.878;2023-04-03T16:17:43;4.03;;;1.52;;
23282;SDS011;11810;51.178;3.878;2023-04-03T16:20:10;4.38;;;1.60;;
23282;SDS011;11810;51.178;3.878;2023-04-03T16:22:38;4.30;;;1.38;;
23282;SDS011;11810;51.178;3.878;2023-04-03T16:25:05;2.88;;;1.50;;
23282;SDS011;11810;51.178;3.878;2023-04-03T16:27:32;2.15;;;1.20;;
23282;SDS011;11810;51.178;3.878;2023-04-03T16:29:59;2.70;;;1.25;;
23282;SDS011;11810;51.178;3.878;2023-04-03T16:32:26;11.15;;;1.60;;
23282;SDS011;11810;51.178;3.878;2023-04-03T16:34:54;3.95;;;1.58;;
23282;SDS011;11810;51.178;3.878;2023-04-03T16:37:20;4.45;;;1.17;;
23282;SDS011;11810;51.178;3.878;2023-04-03T16:39:46;2.47;;;1.33;;
23282;SDS011;11810;51.178;3.878;2023-04-03T16:42:12;2.65;;;1.30;;
23282;SDS011;11810;51.178;3.878;2023-04-03T16:44:38;2.85;;;1.45;;
23282;SDS011;11810;51.178;3.878;2023-04-03T16:47:05;3.10;;;1.20;;
23282;SDS011;11810;51.178;3.878;2023-04-03T16:49:32;3.38;;;1.50;;
23282;SDS011;11810;51.178;3.878;2023-04-03T16:52:00;3.55;;;1.35;;